Aérodrome :
LOGIN :

S'inscrire | Disclaimer

   EN    FR    IT 

 










Légende :    VFR   VFR Marginal   IFR   IFR Intensif   IFR Très Intensif
Visi : 
Plafond : 
>= 8 km
>= 3000ft
5 à 8 km
1000 à 3000 ft
1500m à 5 km
500 à 1000 ft
800 à 1500m
200 à 500 ft
< 800m
< 200 ft
Symboles :   Orages  Brouillard  Fortes neiges  Fortes précipitations  Vent > 20 kt
SIGMETs :   Divers  Orages  Givrage  Turbulence  Onde Orograph.  Cendres Volcan.







- Altitude de l'aérodrome : 13 ft
- Code IATA : OST


EBOS - Oostend bruges Int.

DERNIER METAR :
  • 192320Z 18013KT CAVOK 16/12 Q1004 TEMPO 18015G25KT

METARs EXPIRÉS :
  • 192250Z 18013KT CAVOK 16/12 Q1004 TEMPO 18015G25KT
  • 192220Z 18012KT CAVOK 16/12 Q1004 NOSIG
  • 192150Z 18011KT CAVOK 17/12 Q1005 NOSIG
  • 192120Z 18011KT CAVOK 17/12 Q1005 NOSIG
  • 192050Z 18010KT CAVOK 17/12 Q1005 NOSIG

TAF TAF EBOS
Valide du 19 à 18h jusqu'au 21 à 00h UTC


191700Z 1918/2024 18015KT 9999 FEW025 SCT080
TEMPO 1923/2017 18015G25KT
TEMPO 2002/2016 19017G29KT 4000 RA SHRA BKN014
BECMG 2010/2012 25014KT
Pas de NOTAMs connus pour ce terrain.
3 SIGMETs publiés pour la FIR Brussels (EBBU) :
 
Turbulence forte
EBBU SIGMET 01 VALID 200300/200700 EBBR
EBBU BRUSSELS FIR SEV TURB FCST S OF LINE N5101 E00231 - N4958 E00438 FL190/350 MOV NE 25KT NC=
Turbulence forte
COR EBBU SIGMET 01 VALID 200300/200700 EBBR
EBBU BRUSSELS FIR SEV TURB FCST S OF LINE N5103 E00238 - N5002 E00444 FL190/350 MOV NE 25KT NC=
Turbulence forte
COR EBBU SIGMET 01 VALID 200300/200700 EBBR
EBBU BRUSSELS FIR SEV TURB FCST S OF LINE N5047 E00305 - N5002 E00444 FL190/350 MOV NE 25KT NC=



MET'MAP, la Météo Aéronautique d'un coup d'oeil ! - Copyright ORBIFLY Décembre 2007 - Disclaimer

ORBIFLY MET'MAP TEAM :

Programmation & Développement : Alexandra Zaïnal
Conception & Développement : Baudouin d'Aumeries
Co-Programmation & Développement : Marc-Olivier Méhu
Soutien technique & logistique : Manuel Goepfert

Contact : metmap@orbifly.com




SOURCES & CREDITS :

   NOAA